Latest Weather Observations for Hopetoun Airport

IDV60801

Issued at 9:02 pm EST Saturday 25 May 2019 (issued every 10 minutes, with the page automatically refreshed every 10 minutes)

About weather observations | Map of weather stations | Latest weather observations for VIC | Other Formats
Station Details ID: 077010 Name: HOPETOUN AIRPORT Lat: -35.72 Lon: 142.36 Height: 77.3 m
Data from the previous 72 hours. | See also: Recent months at Hopetoun Airport
Date/Time
EST
Temp
°C
App
Temp
°C
Dew
Point
°C
Rel
Hum
%
Delta-T
°C
Wind Press
QNH
hPa
Press
MSL
hPa
Rain since
9am
mm
Dir  Spd
km/h
Gust
km/h
Spd
kts
Gust
kts
25/09:00pm 11.8 8.9 10.9 94 0.5 W 17 20 9 11 1015.8 1015.9 2.0
25/08:30pm 12.1 9.3 11.3 95 0.4 W 17 22 9 12 1015.4 1015.5 2.0
25/08:00pm 12.4 10.1 11.8 96 0.3 W 15 20 8 11 1015.2 1015.3 2.0
25/07:30pm 12.6 10.4 12.0 96 0.3 W 15 19 8 10 1015.0 1015.1 2.0
25/07:00pm 12.7 10.8 11.9 95 0.4 W 13 17 7 9 1014.3 1014.4 2.0
25/06:30pm 13.0 9.3 11.6 91 0.7 W 22 30 12 16 1014.4 1014.5 1.6
25/06:00pm 13.5 9.2 11.9 90 0.9 W 26 35 14 19 1013.9 1013.9 1.2
25/05:30pm 13.9 10.5 12.5 91 0.8 WNW 22 30 12 16 1013.4 1013.4 1.0
25/05:00pm 14.3 10.8 12.3 88 1.1 WNW 22 30 12 16 1013.1 1013.1 0.8
25/04:30pm 14.8 11.7 12.3 85 1.4 W 20 28 11 15 1012.9 1012.9 0.4
25/04:00pm 15.0 11.7 12.9 87 1.2 WNW 22 28 12 15 1013.1 1013.1 0.4
25/03:30pm 15.2 11.2 13.1 87 1.2 WNW 26 33 14 18 1013.1 1013.1 0.4
25/03:00pm 17.8 12.3 10.4 62 4.0 W 30 37 16 20 1012.9 1012.9 0.2
25/02:30pm 18.9 13.1 9.4 54 5.0 W 30 37 16 20 1012.8 1012.8 0.2
25/02:00pm 19.3 14.3 9.5 53 5.2 WNW 26 32 14 17 1013.0 1013.0 0.2
25/01:30pm 19.2 14.2 9.7 54 5.1 WNW 26 35 14 19 1013.4 1013.4 0.2
25/01:00pm 19.7 15.4 9.3 51 5.5 WNW 22 33 12 18 1013.8 1013.8 0.2
25/12:30pm 18.7 13.9 8.9 53 5.1 WNW 24 32 13 17 1014.4 1014.5 0.2
25/12:00pm 18.3 13.6 9.4 56 4.7 WNW 24 30 13 16 1015.0 1015.1 0.2
25/11:30am 17.8 12.8 9.7 59 4.3 NW 26 35 14 19 1015.6 1015.7 0.0
25/11:00am 17.5 13.1 10.4 63 3.8 NW 24 33 13 18 1015.9 1016.0 0.0
25/10:30am 16.6 12.3 10.9 69 3.1 NW 24 32 13 17 1016.1 1016.2 0.0
25/10:00am 15.2 11.3 10.8 75 2.3 NW 22 28 12 15 1016.1 1016.2 0.0
25/09:30am 13.8 11.8 12.7 93 0.6 NW 15 22 8 12 1016.3 1016.3 0.0
25/09:00am 11.5 9.1 11.5 100 0.0 NW 15 19 8 10 1016.3 1016.3 0.4
25/08:30am 10.0 8.3 10.0 100 0.0 NNW 9 13 5 7 1016.3 1016.3 0.4
25/08:00am 7.9 6.1 7.8 99 0.0 NNW 7 7 4 4 1016.0 1016.1 0.4
25/07:30am 8.3 5.8 8.2 99 0.0 NW 11 13 6 7 1015.9 1016.0 0.4
25/07:00am 8.1 5.6 8.0 99 0.0 NW 11 11 6 6 1016.0 1016.1 0.4
25/06:30am 7.6 5.3 7.3 98 0.1 NNW 9 9 5 5 1015.9 1016.0 0.4
25/06:00am 7.8 5.1 7.5 98 0.1 NNW 11 11 6 6 1015.8 1015.9 0.4
25/05:30am 7.9 5.6 7.3 96 0.3 NW 9 9 5 5 1015.7 1015.8 0.4
25/05:00am 8.5 6.6 7.7 95 0.4 NW 7 9 4 5 1015.8 1015.9 0.4
25/04:30am 8.6 6.7 7.7 94 0.4 NW 7 9 4 5 1015.7 1015.8 0.4
25/04:00am 8.9 7.0 7.7 92 0.6 WNW 7 9 4 5 1015.7 1015.8 0.4
25/03:30am 9.8 7.8 8.6 92 0.6 WNW 9 9 5 5 1015.8 1015.9 0.4
25/03:00am 10.5 8.3 9.3 92 0.6 NW 11 11 6 6 1015.9 1016.0 0.4
25/02:30am 10.7 8.8 9.1 90 0.8 NW 9 11 5 6 1016.3 1016.3 0.4
25/02:00am 10.8 8.9 8.9 88 0.9 NW 9 11 5 6 1016.4 1016.4 0.4
25/01:30am 11.3 9.8 9.2 87 1.1 NW 7 7 4 4 1016.4 1016.4 0.4
25/01:00am 11.9 10.2 9.8 87 1.1 NW 9 11 5 6 1016.5 1016.5 0.4
25/12:30am 12.2 10.8 9.6 84 1.3 WNW 7 9 4 5 1016.6 1016.6 0.4
25/12:00am 12.8 11.5 9.8 82 1.5 W 7 9 4 5 1016.6 1016.6 0.4
 
Date/Time
EST
Temp
°C
App
Temp
°C
Dew
Point
°C
Rel
Hum
%
Delta-T
°C
Wind Press
QNH
hPa
Press
MSL
hPa
Rain since
9am
mm
Dir  Spd
km/h
Gust
km/h
Spd
kts
Gust
kts
24/11:30pm 13.5 11.9 10.3 81 1.7 W 9 9 5 5 1016.6 1016.6 0.4
24/11:00pm 14.2 13.2 10.2 77 2.1 WNW 6 6 3 3 1016.7 1016.7 0.4
24/10:30pm 14.7 14.0 9.9 73 2.5 WSW 4 4 2 2 1016.9 1016.9 0.4
24/10:00pm 15.5 14.7 11.1 75 2.4 SW 6 7 3 4 1016.8 1016.8 0.4
24/09:30pm 16.4 15.4 11.1 71 2.9 SSW 7 11 4 6 1016.8 1016.8 0.4
24/09:00pm 17.6 15.9 11.2 66 3.5 SW 11 15 6 8 1016.7 1016.7 0.4
24/08:30pm 19.1 15.2 8.7 51 5.4 WSW 19 28 10 15 1016.6 1016.6 0.4
24/08:00pm 19.9 16.4 7.3 44 6.4 WNW 15 20 8 11 1016.3 1016.3 0.4
24/07:30pm 18.8 16.6 7.9 49 5.6 NW 9 11 5 6 1016.0 1016.1 0.4
24/07:00pm 19.5 16.5 7.9 47 6.0 NW 13 15 7 8 1015.8 1015.9 0.4
24/06:30pm 20.6 16.3 7.2 42 6.9 NNW 19 26 10 14 1015.5 1015.6 0.4
24/06:00pm 22.0 15.8 6.3 36 8.0 NNW 28 33 15 18 1015.3 1015.4 0.4
24/05:30pm 21.9 16.3 7.0 38 7.7 NNW 26 33 14 18 1015.5 1015.6 0.4
24/05:00pm 21.4 15.2 8.0 42 7.0 NW 30 39 16 21 1015.9 1016.0 0.4
24/04:34pm 22.9 15.9 6.2 34 8.5 NW 32 57 17 31 1015.9 1016.0 0.4
24/04:30pm 22.6 15.9 7.2 37 8.0 NW 32 43 17 23 1016.0 1016.1 0.4
24/04:00pm 22.8 17.7 7.8 38 7.9 NNW 24 33 13 18 1015.5 1015.6 0.4
24/03:30pm 22.5 18.8 9.3 43 7.1 N 19 28 10 15 1015.8 1015.9 0.4
24/03:00pm 22.2 19.2 9.4 44 6.9 N 15 19 8 10 1015.9 1016.0 0.4
24/02:30pm 22.2 18.8 9.0 43 7.1 N 17 26 9 14 1015.9 1016.0 0.4
24/02:00pm 22.6 19.9 10.4 46 6.7 NNE 15 20 8 11 1015.9 1016.0 0.4
24/01:30pm 21.1 19.7 10.9 52 5.6 N 9 13 5 7 1016.5 1016.5 0.4
24/01:00pm 19.5 16.9 10.8 57 4.7 N 15 20 8 11 1016.7 1016.7 0.2
24/12:30pm 19.1 17.2 10.6 58 4.6 NE 11 17 6 9 1016.6 1016.6 0.2
24/12:00pm 18.9 16.5 10.2 57 4.7 NNE 13 20 7 11 1018.0 1018.0 0.2
24/11:30am 18.6 15.3 10.9 61 4.2 NNE 19 24 10 13 1018.3 1018.3 0.2
24/11:00am 16.8 13.6 11.3 70 3.0 NNE 19 24 10 13 1018.6 1018.6 0.2
24/10:30am 15.9 15.7 11.9 77 2.2 SSW 4 9 2 5 1019.1 1019.1 0.2
24/10:00am 15.2 14.1 10.8 75 2.3 W 7 11 4 6 1020.5 1020.5 0.0
24/09:30am 15.6 14.4 10.4 71 2.7 NNW 7 11 4 6 1020.7 1020.7 0.0
24/09:00am 14.7 13.8 10.7 77 2.1 NNW 6 9 3 5 1020.4 1020.4 0.0
24/08:30am 13.6 12.5 9.8 78 2.0 N 6 9 3 5 1020.0 1020.0 0.0
24/08:00am 13.6 12.1 10.6 82 1.6 NNE 9 11 5 6 1019.5 1019.5 0.0
24/07:30am 13.3 11.4 10.5 83 1.5 ENE 11 13 6 7 1019.5 1019.5 0.0
24/07:00am 14.4 13.2 10.4 77 2.1 SSE 7 11 4 6 1019.8 1019.8 0.0
24/06:30am 15.4 10.8 9.7 69 3.0 SW 24 41 13 22 1020.0 1020.0 0.0
24/06:19am 16.5 12.8 8.0 57 4.3 NW 17 43 9 23 1020.3 1020.3 0.0
24/06:00am 15.5 13.5 8.5 63 3.6 W 9 19 5 10 1018.6 1018.6 0.0
24/05:30am 15.8 12.6 8.5 62 3.7 N 15 22 8 12 1017.8 1017.8 0.0
24/05:00am 15.7 10.7 8.2 61 3.8 N 24 37 13 20 1017.8 1017.8 0.0
24/04:30am 14.7 10.9 7.7 63 3.5 N 17 20 9 11 1018.5 1018.5 0.0
24/04:00am 13.3 11.4 7.5 68 2.8 NNW 7 15 4 8 1019.2 1019.2 0.0
24/03:30am 12.2 10.4 7.3 72 2.4 N 6 7 3 4 1019.2 1019.2 0.0
24/03:00am 12.2 10.7 6.9 70 2.5 N 4 6 2 3 1019.3 1019.3 0.0
24/02:30am 12.7 11.3 7.2 69 2.7 N 4 6 2 3 1019.7 1019.7 0.0
24/02:00am 12.9 11.5 7.1 68 2.8 NW 4 7 2 4 1020.1 1020.1 0.0
24/01:30am 12.8 10.7 6.8 67 2.9 NNW 7 9 4 5 1019.9 1019.9 0.0
24/01:00am 13.4 11.1 7.6 68 2.8 N 9 11 5 6 1020.2 1020.2 0.0
24/12:30am 13.8 11.6 8.0 68 2.9 N 9 11 5 6 1020.3 1020.3 0.0
24/12:00am 13.8 11.5 7.3 65 3.2 NNW 9 9 5 5 1020.5 1020.5 0.0
 
Date/Time
EST
Temp
°C
App
Temp
°C
Dew
Point
°C
Rel
Hum
%
Delta-T
°C
Wind Press
QNH
hPa
Press
MSL
hPa
Rain since
9am
mm
Dir  Spd
km/h
Gust
km/h
Spd
kts
Gust
kts
23/11:30pm 13.8 11.5 7.6 66 3.1 N 9 11 5 6 1020.5 1020.5 0.0
23/11:00pm 15.1 12.5 7.6 61 3.7 NW 11 13 6 7 1020.8 1020.8 0.0
23/10:30pm 15.5 12.5 7.5 59 4.0 NNW 13 15 7 8 1021.1 1021.1 0.0
23/10:00pm 16.4 13.1 8.1 58 4.2 NNE 15 17 8 9 1020.5 1020.5 0.0
23/09:30pm 17.1 14.2 8.0 55 4.6 NNE 13 15 7 8 1020.6 1020.6 0.0
23/09:00pm 18.6 15.1 8.6 52 5.2 N 17 22 9 12 1020.7 1020.7 0.0
23/08:30pm 18.3 15.4 8.0 51 5.3 N 13 17 7 9 1020.7 1020.7 0.0
23/08:00pm 19.6 16.0 8.3 48 5.9 N 17 20 9 11 1020.6 1020.6 0.0
23/07:30pm 19.8 16.2 8.5 48 5.9 N 17 22 9 12 1020.6 1020.6 0.0
23/07:00pm 19.9 16.3 8.3 47 6.0 N 17 20 9 11 1020.6 1020.6 0.0
23/06:30pm 20.2 17.2 7.9 45 6.4 N 13 17 7 9 1020.7 1020.7 0.0
23/06:00pm 21.3 18.0 8.2 43 6.9 N 15 17 8 9 1020.6 1020.6 0.0
23/05:30pm 22.8 18.6 8.1 39 7.8 N 20 28 11 15 1020.4 1020.4 0.0
23/05:00pm 24.5 19.5 8.0 35 8.8 N 24 35 13 19 1020.4 1020.4 0.0
23/04:30pm 25.3 20.1 7.4 32 9.5 N 24 35 13 19 1020.7 1020.7 0.0
23/04:00pm 25.1 18.7 5.3 28 10.1 N 28 37 15 20 1020.8 1020.8 0.0
23/03:30pm 26.2 19.7 4.6 25 10.9 N 28 39 15 21 1020.9 1020.9 0.0
23/03:00pm 26.3 19.5 5.3 26 10.7 N 30 39 16 21 1021.1 1021.1 0.0
23/02:30pm 26.0 19.1 6.6 29 10.2 N 32 39 17 21 1021.2 1021.2 0.0
23/02:00pm 25.6 19.7 7.7 32 9.5 N 28 43 15 23 1021.6 1021.6 0.0
23/01:30pm 24.8 18.7 8.3 35 8.8 N 30 37 16 20 1022.0 1022.0 0.0
23/01:00pm 24.2 18.6 8.6 37 8.4 N 28 35 15 19 1022.8 1022.8 0.0
23/12:30pm 23.4 17.7 8.3 38 8.0 N 28 37 15 20 1023.7 1023.7 0.0
23/12:00pm 22.4 17.4 8.1 40 7.5 N 24 32 13 17 1024.7 1024.7 0.0
23/11:30am 22.0 17.5 8.5 42 7.2 N 22 30 12 16 1025.3 1025.4 0.0
23/11:00am 20.2 15.9 7.9 45 6.3 N 20 26 11 14 1025.8 1025.9 0.0
23/10:30am 19.0 14.3 7.8 48 5.7 N 22 28 12 15 1026.1 1026.2 0.0
23/10:00am 17.2 12.8 7.5 53 4.9 N 20 26 11 14 1026.3 1026.4 0.0
23/09:30am 15.3 11.9 7.8 61 3.8 N 15 20 8 11 1026.5 1026.6 0.0
23/09:00am 12.5 9.7 7.0 69 2.6 NNE 11 15 6 8 1026.7 1026.8 0.0
23/08:30am 10.0 7.5 6.5 79 1.6 NE 9 9 5 5 1026.8 1026.9 0.0
23/08:00am 7.3 4.5 5.3 87 0.9 NE 9 9 5 5 1026.7 1026.8 0.0
23/07:30am 5.9 3.4 3.9 87 0.8 NE 6 6 3 3 1026.4 1026.5 0.0
23/07:00am 6.5 4.1 4.5 87 0.9 NE 6 6 3 3 1026.2 1026.3 0.0
23/06:30am 6.2 3.7 3.9 85 1.0 ENE 6 6 3 3 1026.0 1026.1 0.0
23/06:00am 7.4 5.5 5.0 85 1.1 ENE 4 4 2 2 1025.9 1026.0 0.0
23/05:30am 7.0 4.6 4.5 84 1.1 NE 6 6 3 3 1025.7 1025.8 0.0
23/05:00am 7.0 4.6 4.3 83 1.2 ENE 6 6 3 3 1025.7 1025.8 0.0
23/04:30am 7.1 4.7 4.1 81 1.3 NE 6 7 3 4 1025.6 1025.7 0.0
23/04:00am 7.3 4.9 4.3 81 1.3 ENE 6 6 3 3 1025.9 1026.0 0.0
23/03:30am 7.3 4.8 3.9 79 1.5 ENE 6 6 3 3 1026.0 1026.1 0.0
23/03:00am 8.0 5.6 4.4 78 1.6 NE 6 6 3 3 1026.1 1026.2 0.0
23/02:30am 8.4 6.0 4.4 76 1.8 NNE 6 7 3 4 1026.2 1026.3 0.0
23/02:00am 8.3 6.2 3.9 74 1.9 NNE 4 6 2 3 1026.3 1026.4 0.0
23/01:30am 8.7 6.0 3.5 70 2.2 N 7 9 4 5 1026.2 1026.3 0.0
23/01:00am 9.6 7.1 4.6 71 2.2 NNE 7 9 4 5 1026.5 1026.6 0.0
23/12:30am 10.2 7.3 4.8 69 2.4 NNE 9 11 5 6 1026.7 1026.8 0.0
23/12:00am 10.3 7.4 4.7 68 2.5 NE 9 9 5 5 1026.7 1026.8 0.0
 
Date/Time
EST
Temp
°C
App
Temp
°C
Dew
Point
°C
Rel
Hum
%
Delta-T
°C
Wind Press
QNH
hPa
Press
MSL
hPa
Rain since
9am
mm
Dir  Spd
km/h
Gust
km/h
Spd
kts
Gust
kts
22/11:30pm 9.9 7.5 4.3 68 2.5 NE 6 6 3 3 1026.8 1026.9 0.0
22/11:00pm 11.7 9.2 4.7 62 3.2 NE 7 7 4 4 1026.8 1026.9 0.0
22/10:30pm 12.5 10.2 5.0 60 3.5 NE 6 7 3 4 1026.9 1027.0 0.0
22/10:00pm 12.3 9.0 4.5 59 3.5 NE 11 13 6 7 1026.9 1027.0 0.0
22/09:30pm 12.6 9.3 4.3 57 3.8 NE 11 13 6 7 1026.8 1026.9 0.0

Other formats

Comma delimited format used in spreadsheet applications
http://www.bom.gov.au/fwo/IDV60801/IDV60801.94838.axf

JavaScript Object Notation format (JSON) in row-major order
http://www.bom.gov.au/fwo/IDV60801/IDV60801.94838.json

Data quality

Most of these data are generated automatically and are frequently updated. Quality checks on data are not normally performed. It is possible for incorrect values to appear. Refer to information at About Latest Weather Observations and please check the disclaimer before using these data.